sensor_id;sensor_type;location;lat;lon;timestamp;pressure;altitude;pressure_sealevel;temperature;humidity
33075;BME280;19433;51.292;6.868;2023-08-24T00:00:44;100625.19;;;16.78;100.00
33075;BME280;19433;51.292;6.868;2023-08-24T00:03:09;100621.66;;;16.82;100.00
33075;BME280;19433;51.292;6.868;2023-08-24T00:05:35;100617.78;;;16.72;100.00
33075;BME280;19433;51.292;6.868;2023-08-24T00:08:07;100616.91;;;16.71;100.00
33075;BME280;19433;51.292;6.868;2023-08-24T00:10:34;100611.06;;;16.61;100.00
33075;BME280;19433;51.292;6.868;2023-08-24T00:12:59;100612.75;;;16.62;100.00
33075;BME280;19433;51.292;6.868;2023-08-24T00:15:25;100618.34;;;16.62;100.00
33075;BME280;19433;51.292;6.868;2023-08-24T00:17:50;100612.28;;;16.65;100.00
33075;BME280;19433;51.292;6.868;2023-08-24T00:20:16;100613.13;;;16.66;100.00
33075;BME280;19433;51.292;6.868;2023-08-24T00:22:42;100606.81;;;16.59;100.00
33075;BME280;19433;51.292;6.868;2023-08-24T00:25:07;100601.22;;;16.47;100.00
33075;BME280;19433;51.292;6.868;2023-08-24T00:27:33;100596.34;;;16.42;100.00
33075;BME280;19433;51.292;6.868;2023-08-24T00:29:59;100593.34;;;16.56;100.00
33075;BME280;19433;51.292;6.868;2023-08-24T00:32:24;100592.13;;;16.51;100.00
33075;BME280;19433;51.292;6.868;2023-08-24T00:34:50;100586.91;;;16.55;100.00
33075;BME280;19433;51.292;6.868;2023-08-24T00:37:15;100584.97;;;16.56;100.00
33075;BME280;19433;51.292;6.868;2023-08-24T00:39:40;100592.00;;;16.58;100.00
33075;BME280;19433;51.292;6.868;2023-08-24T00:42:06;100582.56;;;16.59;100.00
33075;BME280;19433;51.292;6.868;2023-08-24T00:44:31;100584.28;;;16.72;100.00
33075;BME280;19433;51.292;6.868;2023-08-24T00:46:58;100594.72;;;16.65;100.00
33075;BME280;19433;51.292;6.868;2023-08-24T00:49:24;100583.16;;;16.61;100.00
33075;BME280;19433;51.292;6.868;2023-08-24T00:51:50;100574.19;;;16.59;100.00
33075;BME280;19433;51.292;6.868;2023-08-24T00:54:16;100578.47;;;16.73;100.00
33075;BME280;19433;51.292;6.868;2023-08-24T00:56:42;100581.50;;;16.83;100.00
33075;BME280;19433;51.292;6.868;2023-08-24T00:59:07;100566.22;;;16.74;100.00
33075;BME280;19433;51.292;6.868;2023-08-24T01:01:33;100581.59;;;16.65;100.00
33075;BME280;19433;51.292;6.868;2023-08-24T01:03:58;100578.69;;;16.48;100.00
33075;BME280;19433;51.292;6.868;2023-08-24T01:06:24;100567.38;;;16.43;100.00
33075;BME280;19433;51.292;6.868;2023-08-24T01:08:49;100572.59;;;16.40;100.00
33075;BME280;19433;51.292;6.868;2023-08-24T01:14:09;100577.84;;;16.71;100.00
33075;BME280;19433;51.292;6.868;2023-08-24T01:16:42;100571.94;;;16.79;100.00
33075;BME280;19433;51.292;6.868;2023-08-24T01:19:22;100572.03;;;16.84;100.00
33075;BME280;19433;51.292;6.868;2023-08-24T01:21:54;100578.09;;;17.05;100.00
33075;BME280;19433;51.292;6.868;2023-08-24T01:24:39;100578.53;;;17.37;97.41
33075;BME280;19433;51.292;6.868;2023-08-24T01:27:05;100584.09;;;17.37;96.47
33075;BME280;19433;51.292;6.868;2023-08-24T01:29:31;100580.84;;;17.28;97.05
33075;BME280;19433;51.292;6.868;2023-08-24T01:31:57;100585.09;;;17.31;98.97
33075;BME280;19433;51.292;6.868;2023-08-24T01:34:22;100578.47;;;17.08;100.00
33075;BME280;19433;51.292;6.868;2023-08-24T01:36:47;100583.91;;;17.03;100.00
33075;BME280;19433;51.292;6.868;2023-08-24T01:39:43;100598.09;;;17.13;100.00
33075;BME280;19433;51.292;6.868;2023-08-24T01:42:16;100589.50;;;17.03;100.00
33075;BME280;19433;51.292;6.868;2023-08-24T01:44:43;100585.38;;;16.94;100.00
33075;BME280;19433;51.292;6.868;2023-08-24T01:47:13;100567.66;;;16.88;100.00
33075;BME280;19433;51.292;6.868;2023-08-24T01:49:39;100576.16;;;16.82;100.00
33075;BME280;19433;51.292;6.868;2023-08-24T01:52:05;100568.88;;;16.93;100.00
33075;BME280;19433;51.292;6.868;2023-08-24T01:54:31;100566.69;;;17.06;98.00
33075;BME280;19433;51.292;6.868;2023-08-24T01:56:57;100558.72;;;17.38;94.96
33075;BME280;19433;51.292;6.868;2023-08-24T01:59:22;100561.47;;;17.50;93.60
33075;BME280;19433;51.292;6.868;2023-08-24T02:01:47;100556.09;;;17.60;93.12
33075;BME280;19433;51.292;6.868;2023-08-24T02:04:13;100552.66;;;17.81;91.35
33075;BME280;19433;51.292;6.868;2023-08-24T02:06:39;100553.31;;;17.88;90.48
33075;BME280;19433;51.292;6.868;2023-08-24T02:09:04;100552.59;;;17.93;89.35
33075;BME280;19433;51.292;6.868;2023-08-24T02:11:29;100552.44;;;18.00;88.91
33075;BME280;19433;51.292;6.868;2023-08-24T02:13:54;100557.34;;;18.09;87.77
33075;BME280;19433;51.292;6.868;2023-08-24T02:16:20;100553.88;;;18.02;87.67
33075;BME280;19433;51.292;6.868;2023-08-24T02:18:45;100547.88;;;18.10;87.34
33075;BME280;19433;51.292;6.868;2023-08-24T02:21:10;100561.59;;;18.12;86.64
33075;BME280;19433;51.292;6.868;2023-08-24T02:23:38;100559.31;;;18.25;85.10
33075;BME280;19433;51.292;6.868;2023-08-24T02:26:03;100547.13;;;18.32;84.41
33075;BME280;19433;51.292;6.868;2023-08-24T02:28:29;100554.25;;;18.39;83.78
33075;BME280;19433;51.292;6.868;2023-08-24T02:30:54;100560.94;;;18.38;83.95
33075;BME280;19433;51.292;6.868;2023-08-24T02:33:24;100565.41;;;18.22;84.85
33075;BME280;19433;51.292;6.868;2023-08-24T02:35:50;100562.47;;;18.29;84.77
33075;BME280;19433;51.292;6.868;2023-08-24T02:38:16;100555.78;;;18.47;83.85
33075;BME280;19433;51.292;6.868;2023-08-24T02:40:41;100551.78;;;18.43;82.95
33075;BME280;19433;51.292;6.868;2023-08-24T02:43:06;100548.84;;;18.33;84.11
33075;BME280;19433;51.292;6.868;2023-08-24T02:45:32;100554.59;;;18.26;84.36
33075;BME280;19433;51.292;6.868;2023-08-24T02:47:57;100561.44;;;18.18;85.20
33075;BME280;19433;51.292;6.868;2023-08-24T02:50:23;100562.63;;;18.22;84.84
33075;BME280;19433;51.292;6.868;2023-08-24T02:52:48;100557.09;;;18.11;87.99
33075;BME280;19433;51.292;6.868;2023-08-24T02:55:13;100557.59;;;18.08;87.46
33075;BME280;19433;51.292;6.868;2023-08-24T02:57:39;100562.56;;;18.17;89.29
33075;BME280;19433;51.292;6.868;2023-08-24T03:00:04;100564.38;;;17.95;89.40
33075;BME280;19433;51.292;6.868;2023-08-24T03:02:32;100554.53;;;17.92;90.58
33075;BME280;19433;51.292;6.868;2023-08-24T03:04:57;100548.25;;;17.85;91.94
33075;BME280;19433;51.292;6.868;2023-08-24T03:07:22;100536.25;;;17.73;91.74
33075;BME280;19433;51.292;6.868;2023-08-24T03:09:47;100535.44;;;17.61;92.32
33075;BME280;19433;51.292;6.868;2023-08-24T03:12:13;100537.66;;;17.87;91.92
33075;BME280;19433;51.292;6.868;2023-08-24T03:14:38;100544.50;;;17.80;91.29
33075;BME280;19433;51.292;6.868;2023-08-24T03:17:03;100535.97;;;17.86;90.61
33075;BME280;19433;51.292;6.868;2023-08-24T03:19:29;100535.59;;;18.11;87.56
33075;BME280;19433;51.292;6.868;2023-08-24T03:21:55;100529.25;;;18.16;87.02
33075;BME280;19433;51.292;6.868;2023-08-24T03:24:20;100537.63;;;18.16;88.48
33075;BME280;19433;51.292;6.868;2023-08-24T03:26:45;100533.06;;;18.26;85.99
33075;BME280;19433;51.292;6.868;2023-08-24T03:29:13;100547.88;;;18.27;87.10
33075;BME280;19433;51.292;6.868;2023-08-24T03:31:38;100549.34;;;18.30;89.44
33075;BME280;19433;51.292;6.868;2023-08-24T03:34:03;100558.34;;;18.48;90.29
33075;BME280;19433;51.292;6.868;2023-08-24T03:36:29;100541.44;;;18.26;90.14
33075;BME280;19433;51.292;6.868;2023-08-24T03:38:54;100549.69;;;18.33;90.09
33075;BME280;19433;51.292;6.868;2023-08-24T03:41:19;100564.25;;;18.35;91.37
33075;BME280;19433;51.292;6.868;2023-08-24T03:43:45;100572.13;;;18.21;91.93
33075;BME280;19433;51.292;6.868;2023-08-24T03:46:10;100581.66;;;18.09;91.10
33075;BME280;19433;51.292;6.868;2023-08-24T03:48:35;100581.44;;;18.27;92.52
33075;BME280;19433;51.292;6.868;2023-08-24T03:51:01;100582.72;;;18.36;90.98
33075;BME280;19433;51.292;6.868;2023-08-24T03:53:26;100592.22;;;18.35;91.88
33075;BME280;19433;51.292;6.868;2023-08-24T03:55:52;100580.09;;;18.30;92.08
33075;BME280;19433;51.292;6.868;2023-08-24T03:58:18;100580.34;;;18.28;92.62
33075;BME280;19433;51.292;6.868;2023-08-24T04:00:46;100581.19;;;18.28;94.19
33075;BME280;19433;51.292;6.868;2023-08-24T04:03:12;100559.56;;;18.24;94.31
33075;BME280;19433;51.292;6.868;2023-08-24T04:05:37;100546.84;;;18.00;93.97
33075;BME280;19433;51.292;6.868;2023-08-24T04:08:03;100536.56;;;17.88;96.23
33075;BME280;19433;51.292;6.868;2023-08-24T04:10:29;100529.88;;;17.89;96.36
33075;BME280;19433;51.292;6.868;2023-08-24T04:12:55;100528.94;;;17.84;97.24
33075;BME280;19433;51.292;6.868;2023-08-24T04:15:20;100534.28;;;17.85;98.12
33075;BME280;19433;51.292;6.868;2023-08-24T04:17:46;100532.41;;;17.91;94.81
33075;BME280;19433;51.292;6.868;2023-08-24T04:20:14;100539.84;;;18.14;92.04
33075;BME280;19433;51.292;6.868;2023-08-24T04:22:41;100530.22;;;17.93;94.16
33075;BME280;19433;51.292;6.868;2023-08-24T04:25:08;100522.50;;;17.83;95.58
33075;BME280;19433;51.292;6.868;2023-08-24T04:27:33;100538.63;;;17.65;97.15
33075;BME280;19433;51.292;6.868;2023-08-24T04:29:59;100529.00;;;17.61;99.97
33075;BME280;19433;51.292;6.868;2023-08-24T04:32:24;100512.94;;;17.39;100.00
33075;BME280;19433;51.292;6.868;2023-08-24T04:34:49;100507.13;;;17.41;100.00
33075;BME280;19433;51.292;6.868;2023-08-24T04:37:15;100504.75;;;17.21;100.00
33075;BME280;19433;51.292;6.868;2023-08-24T04:39:40;100501.59;;;17.17;100.00
33075;BME280;19433;51.292;6.868;2023-08-24T04:42:05;100486.09;;;17.10;100.00
33075;BME280;19433;51.292;6.868;2023-08-24T04:44:31;100466.19;;;17.06;100.00
33075;BME280;19433;51.292;6.868;2023-08-24T04:46:57;100476.25;;;17.07;100.00
33075;BME280;19433;51.292;6.868;2023-08-24T04:49:22;100479.78;;;17.03;100.00
33075;BME280;19433;51.292;6.868;2023-08-24T04:51:47;100470.19;;;16.99;100.00
33075;BME280;19433;51.292;6.868;2023-08-24T04:54:13;100457.09;;;16.99;100.00
33075;BME280;19433;51.292;6.868;2023-08-24T04:56:38;100447.38;;;17.02;100.00
33075;BME280;19433;51.292;6.868;2023-08-24T04:59:03;100455.03;;;17.06;100.00
33075;BME280;19433;51.292;6.868;2023-08-24T05:01:29;100467.03;;;17.07;100.00
33075;BME280;19433;51.292;6.868;2023-08-24T05:03:57;100451.16;;;17.07;100.00
33075;BME280;19433;51.292;6.868;2023-08-24T05:06:22;100449.84;;;17.27;100.00
33075;BME280;19433;51.292;6.868;2023-08-24T05:08:48;100443.22;;;17.16;100.00
33075;BME280;19433;51.292;6.868;2023-08-24T05:11:16;100429.16;;;17.11;100.00
33075;BME280;19433;51.292;6.868;2023-08-24T05:13:41;100416.75;;;17.18;100.00
33075;BME280;19433;51.292;6.868;2023-08-24T05:16:07;100417.19;;;17.27;100.00
33075;BME280;19433;51.292;6.868;2023-08-24T05:18:34;100423.53;;;17.22;100.00
33075;BME280;19433;51.292;6.868;2023-08-24T05:20:59;100427.72;;;17.37;100.00
33075;BME280;19433;51.292;6.868;2023-08-24T05:23:24;100429.16;;;17.39;100.00
33075;BME280;19433;51.292;6.868;2023-08-24T05:25:49;100426.91;;;17.53;100.00
33075;BME280;19433;51.292;6.868;2023-08-24T05:28:15;100432.19;;;17.66;100.00
33075;BME280;19433;51.292;6.868;2023-08-24T05:30:40;100431.94;;;17.68;100.00
33075;BME280;19433;51.292;6.868;2023-08-24T05:33:05;100440.00;;;17.81;100.00
33075;BME280;19433;51.292;6.868;2023-08-24T05:35:32;100448.22;;;17.87;100.00
33075;BME280;19433;51.292;6.868;2023-08-24T05:37:57;100440.53;;;17.95;100.00
33075;BME280;19433;51.292;6.868;2023-08-24T05:40:22;100435.09;;;18.05;100.00
33075;BME280;19433;51.292;6.868;2023-08-24T05:42:47;100434.00;;;18.06;100.00
33075;BME280;19433;51.292;6.868;2023-08-24T05:45:13;100434.25;;;18.04;100.00
33075;BME280;19433;51.292;6.868;2023-08-24T05:47:38;100436.97;;;18.16;100.00
33075;BME280;19433;51.292;6.868;2023-08-24T05:50:04;100437.28;;;18.19;100.00
33075;BME280;19433;51.292;6.868;2023-08-24T05:52:29;100428.81;;;18.31;100.00
33075;BME280;19433;51.292;6.868;2023-08-24T05:54:54;100417.94;;;18.35;100.00
33075;BME280;19433;51.292;6.868;2023-08-24T05:57:20;100403.47;;;18.21;100.00
33075;BME280;19433;51.292;6.868;2023-08-24T05:59:45;100411.25;;;18.36;100.00
33075;BME280;19433;51.292;6.868;2023-08-24T06:02:10;100413.50;;;18.55;100.00
33075;BME280;19433;51.292;6.868;2023-08-24T06:04:35;100414.19;;;18.63;99.86
33075;BME280;19433;51.292;6.868;2023-08-24T06:07:01;100414.13;;;18.79;99.67
33075;BME280;19433;51.292;6.868;2023-08-24T06:09:26;100395.00;;;18.93;98.49
33075;BME280;19433;51.292;6.868;2023-08-24T06:11:51;100393.59;;;18.95;98.70
33075;BME280;19433;51.292;6.868;2023-08-24T06:14:17;100390.69;;;19.07;98.77
33075;BME280;19433;51.292;6.868;2023-08-24T06:16:42;100386.13;;;19.28;98.43
33075;BME280;19433;51.292;6.868;2023-08-24T06:19:07;100390.19;;;19.37;97.06
33075;BME280;19433;51.292;6.868;2023-08-24T06:21:33;100378.75;;;19.44;96.61
33075;BME280;19433;51.292;6.868;2023-08-24T06:23:58;100381.56;;;19.71;95.27
33075;BME280;19433;51.292;6.868;2023-08-24T06:26:23;100383.06;;;19.83;94.85
33075;BME280;19433;51.292;6.868;2023-08-24T06:28:49;100374.72;;;19.93;93.54
33075;BME280;19433;51.292;6.868;2023-08-24T06:31:14;100375.53;;;19.89;93.93
33075;BME280;19433;51.292;6.868;2023-08-24T06:33:41;100370.56;;;19.96;93.48
33075;BME280;19433;51.292;6.868;2023-08-24T06:36:06;100367.00;;;20.11;92.82
33075;BME280;19433;51.292;6.868;2023-08-24T06:38:32;100368.44;;;20.18;93.64
33075;BME280;19433;51.292;6.868;2023-08-24T06:40:58;100361.09;;;20.49;91.15
33075;BME280;19433;51.292;6.868;2023-08-24T06:43:25;100358.38;;;20.59;90.40
33075;BME280;19433;51.292;6.868;2023-08-24T06:45:52;100364.63;;;20.77;88.42
33075;BME280;19433;51.292;6.868;2023-08-24T06:48:17;100355.69;;;21.00;87.29
33075;BME280;19433;51.292;6.868;2023-08-24T06:50:43;100359.78;;;21.50;85.90
33075;BME280;19433;51.292;6.868;2023-08-24T06:53:09;100348.44;;;22.56;81.09
33075;BME280;19433;51.292;6.868;2023-08-24T06:55:34;100357.63;;;24.43;76.54
33075;BME280;19433;51.292;6.868;2023-08-24T06:57:59;100366.16;;;26.17;65.99
33075;BME280;19433;51.292;6.868;2023-08-24T07:00:24;100370.44;;;27.43;61.05
33075;BME280;19433;51.292;6.868;2023-08-24T07:02:50;100372.63;;;28.27;55.53
33075;BME280;19433;51.292;6.868;2023-08-24T07:05:16;100371.31;;;28.55;54.83
33075;BME280;19433;51.292;6.868;2023-08-24T07:07:46;100375.13;;;29.30;51.28
33075;BME280;19433;51.292;6.868;2023-08-24T07:10:12;100395.25;;;30.54;48.19
33075;BME280;19433;51.292;6.868;2023-08-24T07:12:38;100412.41;;;31.80;43.99
33075;BME280;19433;51.292;6.868;2023-08-24T07:15:06;100415.41;;;32.71;42.57
33075;BME280;19433;51.292;6.868;2023-08-24T07:17:32;100412.13;;;32.81;39.46
33075;BME280;19433;51.292;6.868;2023-08-24T07:19:57;100416.69;;;33.06;39.77
33075;BME280;19433;51.292;6.868;2023-08-24T07:22:23;100417.69;;;33.99;38.13
33075;BME280;19433;51.292;6.868;2023-08-24T07:24:51;100418.13;;;34.13;37.10
33075;BME280;19433;51.292;6.868;2023-08-24T07:27:17;100421.00;;;34.41;36.02
33075;BME280;19433;51.292;6.868;2023-08-24T07:29:43;100408.00;;;34.04;35.48
33075;BME280;19433;51.292;6.868;2023-08-24T07:32:09;100395.94;;;33.22;36.94
33075;BME280;19433;51.292;6.868;2023-08-24T07:34:34;100393.34;;;33.93;36.03
33075;BME280;19433;51.292;6.868;2023-08-24T07:37:01;100406.19;;;34.99;34.83
33075;BME280;19433;51.292;6.868;2023-08-24T07:39:26;100394.97;;;36.11;33.87
33075;BME280;19433;51.292;6.868;2023-08-24T07:41:52;100411.13;;;36.35;33.06
33075;BME280;19433;51.292;6.868;2023-08-24T07:44:17;100419.72;;;36.96;31.16
33075;BME280;19433;51.292;6.868;2023-08-24T07:46:42;100416.66;;;37.31;30.67
33075;BME280;19433;51.292;6.868;2023-08-24T07:49:07;100421.41;;;38.59;30.42
33075;BME280;19433;51.292;6.868;2023-08-24T07:51:34;100410.22;;;38.98;29.60
33075;BME280;19433;51.292;6.868;2023-08-24T07:54:00;100422.81;;;39.64;28.29
33075;BME280;19433;51.292;6.868;2023-08-24T07:56:25;100427.09;;;39.84;27.52
33075;BME280;19433;51.292;6.868;2023-08-24T07:58:50;100425.34;;;40.45;26.80
33075;BME280;19433;51.292;6.868;2023-08-24T08:01:16;100428.69;;;39.78;26.13
33075;BME280;19433;51.292;6.868;2023-08-24T08:03:42;100426.06;;;39.59;27.09
33075;BME280;19433;51.292;6.868;2023-08-24T08:06:07;100420.03;;;39.30;27.91
33075;BME280;19433;51.292;6.868;2023-08-24T08:08:32;100423.59;;;39.61;26.73
33075;BME280;19433;51.292;6.868;2023-08-24T08:11:02;100427.72;;;39.60;26.72
33075;BME280;19433;51.292;6.868;2023-08-24T08:13:28;100426.66;;;40.69;25.82
33075;BME280;19433;51.292;6.868;2023-08-24T08:16:00;100426.88;;;42.63;23.77
33075;BME280;19433;51.292;6.868;2023-08-24T08:18:26;100429.59;;;43.50;23.70
33075;BME280;19433;51.292;6.868;2023-08-24T08:20:54;100432.78;;;44.45;22.68
33075;BME280;19433;51.292;6.868;2023-08-24T08:23:19;100433.25;;;44.02;21.77
33075;BME280;19433;51.292;6.868;2023-08-24T08:25:44;100436.59;;;44.01;22.21
33075;BME280;19433;51.292;6.868;2023-08-24T08:28:12;100428.88;;;44.55;21.33
33075;BME280;19433;51.292;6.868;2023-08-24T08:30:39;100408.03;;;42.05;23.40
33075;BME280;19433;51.292;6.868;2023-08-24T08:33:05;100393.63;;;40.88;25.62
33075;BME280;19433;51.292;6.868;2023-08-24T08:35:30;100390.53;;;39.55;26.12
33075;BME280;19433;51.292;6.868;2023-08-24T08:37:56;100391.63;;;39.94;26.44
33075;BME280;19433;51.292;6.868;2023-08-24T08:40:25;100398.97;;;38.86;26.63
33075;BME280;19433;51.292;6.868;2023-08-24T08:42:57;100389.97;;;39.38;26.74
33075;BME280;19433;51.292;6.868;2023-08-24T08:45:26;100389.84;;;38.43;27.27
33075;BME280;19433;51.292;6.868;2023-08-24T08:47:56;100378.94;;;37.66;28.36
33075;BME280;19433;51.292;6.868;2023-08-24T08:50:24;100378.25;;;37.50;29.24
33075;BME280;19433;51.292;6.868;2023-08-24T08:52:50;100373.53;;;37.15;30.01
33075;BME280;19433;51.292;6.868;2023-08-24T08:55:15;100360.22;;;37.56;29.59
33075;BME280;19433;51.292;6.868;2023-08-24T08:57:40;100360.22;;;37.83;29.45
33075;BME280;19433;51.292;6.868;2023-08-24T09:00:10;100357.25;;;38.43;28.07
33075;BME280;19433;51.292;6.868;2023-08-24T09:02:36;100353.84;;;37.44;28.77
33075;BME280;19433;51.292;6.868;2023-08-24T09:05:02;100350.88;;;37.14;29.34
33075;BME280;19433;51.292;6.868;2023-08-24T09:07:29;100336.44;;;37.10;29.08
33075;BME280;19433;51.292;6.868;2023-08-24T09:09:55;100334.03;;;37.39;29.41
33075;BME280;19433;51.292;6.868;2023-08-24T09:12:21;100330.00;;;38.40;28.78
33075;BME280;19433;51.292;6.868;2023-08-24T09:14:46;100333.03;;;39.46;27.45
33075;BME280;19433;51.292;6.868;2023-08-24T09:17:19;100320.50;;;39.86;25.91
33075;BME280;19433;51.292;6.868;2023-08-24T09:19:45;100313.13;;;40.14;26.47
33075;BME280;19433;51.292;6.868;2023-08-24T09:22:12;100307.81;;;38.88;26.89
33075;BME280;19433;51.292;6.868;2023-08-24T09:24:38;100300.97;;;37.92;28.70
33075;BME280;19433;51.292;6.868;2023-08-24T09:27:16;100290.53;;;37.81;28.67
33075;BME280;19433;51.292;6.868;2023-08-24T09:29:42;100296.00;;;38.60;29.11
33075;BME280;19433;51.292;6.868;2023-08-24T09:32:08;100287.47;;;38.74;29.06
33075;BME280;19433;51.292;6.868;2023-08-24T09:34:36;100276.66;;;39.15;28.08
33075;BME280;19433;51.292;6.868;2023-08-24T09:37:01;100261.91;;;38.35;28.19
33075;BME280;19433;51.292;6.868;2023-08-24T09:39:29;100260.91;;;38.17;28.01
33075;BME280;19433;51.292;6.868;2023-08-24T09:41:54;100247.69;;;37.79;28.30
33075;BME280;19433;51.292;6.868;2023-08-24T09:44:26;100229.13;;;36.68;29.53
33075;BME280;19433;51.292;6.868;2023-08-24T09:46:52;100218.13;;;36.24;30.51
33075;BME280;19433;51.292;6.868;2023-08-24T09:49:18;100235.69;;;36.64;31.29
33075;BME280;19433;51.292;6.868;2023-08-24T09:51:45;100245.75;;;37.57;31.14
33075;BME280;19433;51.292;6.868;2023-08-24T09:54:11;100262.69;;;38.29;28.90
33075;BME280;19433;51.292;6.868;2023-08-24T09:56:41;100265.00;;;39.01;29.22
33075;BME280;19433;51.292;6.868;2023-08-24T09:59:11;100284.56;;;39.25;27.30
33075;BME280;19433;51.292;6.868;2023-08-24T10:01:42;100273.19;;;38.51;28.43
33075;BME280;19433;51.292;6.868;2023-08-24T10:04:08;100283.00;;;39.42;27.68
33075;BME280;19433;51.292;6.868;2023-08-24T10:06:36;100293.28;;;38.81;27.79
33075;BME280;19433;51.292;6.868;2023-08-24T10:09:02;100290.75;;;39.27;28.17
33075;BME280;19433;51.292;6.868;2023-08-24T10:11:35;100284.59;;;38.37;28.78
33075;BME280;19433;51.292;6.868;2023-08-24T10:14:06;100283.25;;;38.64;28.52
33075;BME280;19433;51.292;6.868;2023-08-24T10:16:33;100286.34;;;38.45;28.49
33075;BME280;19433;51.292;6.868;2023-08-24T10:19:01;100286.44;;;38.15;29.62
33075;BME280;19433;51.292;6.868;2023-08-24T10:21:28;100299.94;;;38.85;27.76
33075;BME280;19433;51.292;6.868;2023-08-24T10:23:57;100296.88;;;37.93;28.53
33075;BME280;19433;51.292;6.868;2023-08-24T10:26:23;100291.16;;;37.63;29.49
33075;BME280;19433;51.292;6.868;2023-08-24T10:28:50;100300.66;;;37.38;30.16
33075;BME280;19433;51.292;6.868;2023-08-24T10:31:20;100279.69;;;36.00;31.30
33075;BME280;19433;51.292;6.868;2023-08-24T10:33:46;100277.03;;;35.91;32.27
33075;BME280;19433;51.292;6.868;2023-08-24T10:36:13;100282.66;;;35.84;32.47
33075;BME280;19433;51.292;6.868;2023-08-24T10:38:43;100289.44;;;35.38;33.07
33075;BME280;19433;51.292;6.868;2023-08-24T10:41:10;100295.38;;;35.83;32.43
33075;BME280;19433;51.292;6.868;2023-08-24T10:43:40;100296.78;;;35.19;33.70
33075;BME280;19433;51.292;6.868;2023-08-24T10:46:13;100311.03;;;35.32;33.62
33075;BME280;19433;51.292;6.868;2023-08-24T10:51:17;100298.44;;;35.20;33.93
33075;BME280;19433;51.292;6.868;2023-08-24T10:54:06;100299.88;;;34.48;34.48
33075;BME280;19433;51.292;6.868;2023-08-24T10:56:37;100304.41;;;34.49;35.41
33075;BME280;19433;51.292;6.868;2023-08-24T10:59:15;100292.34;;;35.06;35.03
33075;BME280;19433;51.292;6.868;2023-08-24T11:02:03;100279.84;;;34.99;35.00
33075;BME280;19433;51.292;6.868;2023-08-24T11:04:29;100275.16;;;35.25;35.04
33075;BME280;19433;51.292;6.868;2023-08-24T11:06:59;100278.25;;;35.17;35.67
33075;BME280;19433;51.292;6.868;2023-08-24T11:09:25;100273.97;;;35.81;34.14
33075;BME280;19433;51.292;6.868;2023-08-24T11:11:58;100275.66;;;36.24;35.24
33075;BME280;19433;51.292;6.868;2023-08-24T11:14:24;100259.56;;;36.42;33.94
33075;BME280;19433;51.292;6.868;2023-08-24T11:16:57;100263.53;;;36.34;32.78
33075;BME280;19433;51.292;6.868;2023-08-24T11:19:23;100247.06;;;35.92;34.14
33075;BME280;19433;51.292;6.868;2023-08-24T11:21:48;100239.50;;;34.76;35.43
33075;BME280;19433;51.292;6.868;2023-08-24T11:24:14;100230.06;;;33.41;38.19
33075;BME280;19433;51.292;6.868;2023-08-24T11:26:42;100241.38;;;32.73;39.33
33075;BME280;19433;51.292;6.868;2023-08-24T11:29:07;100247.31;;;32.56;40.94
33075;BME280;19433;51.292;6.868;2023-08-24T11:31:34;100238.25;;;32.66;40.18
33075;BME280;19433;51.292;6.868;2023-08-24T11:34:00;100248.13;;;32.56;41.09
33075;BME280;19433;51.292;6.868;2023-08-24T11:36:25;100254.91;;;32.39;41.93
33075;BME280;19433;51.292;6.868;2023-08-24T11:38:57;100261.94;;;32.30;41.93
33075;BME280;19433;51.292;6.868;2023-08-24T11:41:23;100269.03;;;32.11;41.98
33075;BME280;19433;51.292;6.868;2023-08-24T11:43:59;100260.69;;;32.06;41.23
33075;BME280;19433;51.292;6.868;2023-08-24T11:46:25;100270.75;;;32.25;41.24
33075;BME280;19433;51.292;6.868;2023-08-24T11:48:50;100258.38;;;32.33;41.10
33075;BME280;19433;51.292;6.868;2023-08-24T11:51:16;100276.59;;;31.95;42.34
33075;BME280;19433;51.292;6.868;2023-08-24T11:53:44;100265.91;;;31.92;42.27
33075;BME280;19433;51.292;6.868;2023-08-24T11:56:13;100262.03;;;31.55;43.08
33075;BME280;19433;51.292;6.868;2023-08-24T11:58:42;100254.41;;;31.80;42.55
33075;BME280;19433;51.292;6.868;2023-08-24T12:01:09;100269.53;;;31.80;42.98
33075;BME280;19433;51.292;6.868;2023-08-24T12:03:36;100267.97;;;31.29;43.72
33075;BME280;19433;51.292;6.868;2023-08-24T12:06:12;100253.63;;;31.17;43.83
33075;BME280;19433;51.292;6.868;2023-08-24T12:08:39;100262.06;;;30.84;46.01
33075;BME280;19433;51.292;6.868;2023-08-24T12:11:20;100241.47;;;30.99;45.37
33075;BME280;19433;51.292;6.868;2023-08-24T12:13:50;100247.94;;;31.08;46.22
33075;BME280;19433;51.292;6.868;2023-08-24T12:16:16;100227.22;;;30.99;47.95
33075;BME280;19433;51.292;6.868;2023-08-24T12:18:50;100240.75;;;31.11;46.50
33075;BME280;19433;51.292;6.868;2023-08-24T12:21:15;100223.72;;;30.94;47.14
33075;BME280;19433;51.292;6.868;2023-08-24T12:23:41;100208.41;;;30.77;47.71
33075;BME280;19433;51.292;6.868;2023-08-24T12:26:06;100187.66;;;30.39;48.40
33075;BME280;19433;51.292;6.868;2023-08-24T12:28:33;100187.88;;;29.79;51.83
33075;BME280;19433;51.292;6.868;2023-08-24T12:31:00;100177.41;;;29.10;61.22
33075;BME280;19433;51.292;6.868;2023-08-24T12:33:29;100165.72;;;28.20;62.07
33075;BME280;19433;51.292;6.868;2023-08-24T12:35:55;100152.81;;;27.52;66.61
33075;BME280;19433;51.292;6.868;2023-08-24T12:38:22;100153.34;;;26.87;75.83
33075;BME280;19433;51.292;6.868;2023-08-24T12:40:47;100148.66;;;26.33;78.14
33075;BME280;19433;51.292;6.868;2023-08-24T12:43:12;100144.53;;;25.71;78.91
33075;BME280;19433;51.292;6.868;2023-08-24T12:45:39;100131.47;;;25.42;79.47
33075;BME280;19433;51.292;6.868;2023-08-24T12:48:04;100110.88;;;25.09;79.97
33075;BME280;19433;51.292;6.868;2023-08-24T12:50:30;100111.81;;;24.86;82.11